Bootsie B, — WDF9484 — position and weather

sailwx.info

Track history (hours):
 
Tides and Currents Weather Stations Pressure Air Temp Water Temp Dewpoint Dewpoint Depression Visibility Wind Speed Wind Dir Waves Ship Positions

Bootsie B,

Owner: Marquette Transp[ortation Co. LLC, Paducah, KY. More information available from US FCC via Universal Licensing System and Coast Guard Vessel Documentation Center.

Last reported at 2017-Apr-27 06:58 UTC. Time now 2017-Apr-27 07:17 UTC.
Position N 32°40' W 091°08'.

; draft 3.7 m.

Type: Towing. MMSI: 367505630.

Date/timePositionNaut miles runAvg speedWind from/ knotsBaromVisibWave heightAir tempDewpointWater temp
2017-Apr-27 06:58N 32°40' W 091°08'  
2017-Apr-24 08:38N 38°52' W 090°09'0 0.0
2017-Apr-24 08:23N 38°52' W 090°09'3 1.2
2017-Apr-24 06:19N 38°53' W 090°11'2 4.9
2017-Apr-24 06:00N 38°54' W 090°13'0 0.1
2017-Apr-24 05:30N 38°54' W 090°13'1 2.2
2017-Apr-24 04:58N 38°55' W 090°14'4 7.8
2017-Apr-24 04:31N 38°55' W 090°18'4 8.0
2017-Apr-24 04:01N 38°57' W 090°23'4 7.4
2017-Apr-24 03:30N 38°57' W 090°28'4 7.7
2017-Apr-24 03:01N 38°54' W 090°31'3 0.2
2017-Apr-23 12:25N 38°52' W 090°33'2 5.1
2017-Apr-23 11:59N 38°54' W 090°31'2 5.2
2017-Apr-23 11:30N 38°56' W 090°29'2 3.3
2017-Apr-23 11:01N 38°57' W 090°28'0 0.1
2017-Apr-23 10:31N 38°57' W 090°28'2 4.3
2017-Apr-23 10:01N 38°58' W 090°25'2 4.9
2017-Apr-23 09:31N 38°57' W 090°22'3 5.0
2017-Apr-23 09:01N 38°56' W 090°19'2 4.8
2017-Apr-23 08:30N 38°55' W 090°16'3 4.7
2017-Apr-23 07:57N 38°54' W 090°13'  
Track history (hours):
 
Tides and Currents Weather Stations Pressure Air Temp Water Temp Dewpoint Dewpoint Depression Visibility Wind Speed Wind Dir Waves Ship Positions

Bootsie B,

Owner: Marquette Transp[ortation Co. LLC, Paducah, KY. More information available from US FCC via Universal Licensing System and Coast Guard Vessel Documentation Center.

Last reported at 2017-Apr-27 06:58 UTC. Time now 2017-Apr-27 07:17 UTC.
Position N 32°40' W 091°08'.

; draft 3.7 m.

Type: Towing. MMSI: 367505630.

Date/timePositionNaut miles runAvg speedWind from/ knotsBaromVisibWave heightAir tempDewpointWater temp
2017-Apr-27 06:58N 32°40' W 091°08'  
2017-Apr-24 08:38N 38°52' W 090°09'0 0.0
2017-Apr-24 08:23N 38°52' W 090°09'3 1.2
2017-Apr-24 06:19N 38°53' W 090°11'2 4.9
2017-Apr-24 06:00N 38°54' W 090°13'0 0.1
2017-Apr-24 05:30N 38°54' W 090°13'1 2.2
2017-Apr-24 04:58N 38°55' W 090°14'4 7.8
2017-Apr-24 04:31N 38°55' W 090°18'4 8.0
2017-Apr-24 04:01N 38°57' W 090°23'4 7.4
2017-Apr-24 03:30N 38°57' W 090°28'4 7.7
2017-Apr-24 03:01N 38°54' W 090°31'3 0.2
2017-Apr-23 12:25N 38°52' W 090°33'2 5.1
2017-Apr-23 11:59N 38°54' W 090°31'2 5.2
2017-Apr-23 11:30N 38°56' W 090°29'2 3.3
2017-Apr-23 11:01N 38°57' W 090°28'0 0.1
2017-Apr-23 10:31N 38°57' W 090°28'2 4.3
2017-Apr-23 10:01N 38°58' W 090°25'2 4.9
2017-Apr-23 09:31N 38°57' W 090°22'3 5.0
2017-Apr-23 09:01N 38°56' W 090°19'2 4.8
2017-Apr-23 08:30N 38°55' W 090°16'3 4.7
2017-Apr-23 07:57N 38°54' W 090°13'  

Dump ship's entire track history